What's new
  • ยินดีต้อนรับทุกท่านเข้าสู่ไทยซีร้อยสามสิบครับ, หากท่านพบปัญหาการใช้งานเว็บไซต์ของเรา
    หรือต้องการเสนอแนะประการใดสามารถโพสแจ้งได้ที่ ฟอรั่ม: Contact us/help info ,ขอบคุณครับ.
    แจ้งข่าวสารการอับเดทฟอรั่ม Thaic-130


    Live support: SKYPIG / Lt.Col.Tirapong Kongsomrit, e-mail: kongsomrit@yahoo.com
    กรุณาปิด โปรแกรมบล๊อกโฆษณา เพราะเราอยู่ได้ด้วยโฆษณาที่ท่านเห็น
    Please close the adblock program. Because we can live with the ads you see

Nov 2012

wis_tom

Super Moderator
โอ้โฮ บินถี่ยิบเลย นักบินเหนื่อยแน่ กำไรเพี๊ยบเลยมั๊งครับ
แอร์เอเซีย
 

Maverick231

Senior Member
กำไรงามๆแบบนี้ปีหน้ารับ SP เยอะๆน่ะครับ :Emo_korea_025.gif:
 

skypig

Administrator
รับแน่ๆ ต้นปี เตรียมตัวไว้
Me @ HKT 1-4 NOV
 

skypig

Administrator
Nanjing Airport (IATA: NKG, ICAO: ZSNJ) นานจิง คืนนี้

ZSNJ 080100Z VRB01MPS 1000 R06/1000N HZ NSC 12/06 Q1019 BECMG 1600

TAF ZSNJ 071929Z 0800/0824 09003MPS 0700 FG NSC
BECMG 0800/0801 1200 BR
BECMG 0801/0802 2400 BR
BECMG 0804/0805 4000 HZ
หมอกจัดอย่างนี้ ต้อง Auto land Cat2
 


Flag Counter

กรุณาปิด โปรแกรมบล๊อกโฆษณา เพราะเราอยู่ได้ด้วยโฆษณาที่ท่านเห็น
Please close the adblock program. Because we can live with the ads you see
Top